sensor_id;sensor_type;location;lat;lon;timestamp;temperature;humidity
318;DHT22;146;53.448;10.228;2024-02-15T00:00:04;12.20;1.00
318;DHT22;146;53.448;10.228;2024-02-15T00:02:53;12.30;1.00
318;DHT22;146;53.448;10.228;2024-02-15T00:05:44;12.30;1.00
318;DHT22;146;53.448;10.228;2024-02-15T00:08:31;12.30;1.00
318;DHT22;146;53.448;10.228;2024-02-15T00:11:20;12.30;1.00
318;DHT22;146;53.448;10.228;2024-02-15T00:14:08;12.30;1.00
318;DHT22;146;53.448;10.228;2024-02-15T00:16:56;12.30;1.00
318;DHT22;146;53.448;10.228;2024-02-15T00:19:43;12.30;1.00
318;DHT22;146;53.448;10.228;2024-02-15T00:22:31;12.30;1.00
318;DHT22;146;53.448;10.228;2024-02-15T00:25:19;12.30;1.00
318;DHT22;146;53.448;10.228;2024-02-15T00:28:06;12.40;1.00
318;DHT22;146;53.448;10.228;2024-02-15T00:30:53;12.40;1.00
318;DHT22;146;53.448;10.228;2024-02-15T00:33:42;12.40;1.00
318;DHT22;146;53.448;10.228;2024-02-15T00:36:29;12.40;1.00
318;DHT22;146;53.448;10.228;2024-02-15T00:39:16;12.40;1.00
318;DHT22;146;53.448;10.228;2024-02-15T00:42:04;12.40;1.00
318;DHT22;146;53.448;10.228;2024-02-15T00:44:51;12.40;1.00
318;DHT22;146;53.448;10.228;2024-02-15T00:47:38;12.40;1.00
318;DHT22;146;53.448;10.228;2024-02-15T00:50:29;12.40;1.00
318;DHT22;146;53.448;10.228;2024-02-15T00:53:16;12.30;1.00
318;DHT22;146;53.448;10.228;2024-02-15T00:56:04;12.30;1.00
318;DHT22;146;53.448;10.228;2024-02-15T00:58:52;12.30;1.00
318;DHT22;146;53.448;10.228;2024-02-15T01:01:39;12.20;1.00
318;DHT22;146;53.448;10.228;2024-02-15T01:04:26;12.30;1.00
318;DHT22;146;53.448;10.228;2024-02-15T01:07:15;12.20;1.00
318;DHT22;146;53.448;10.228;2024-02-15T01:10:02;12.20;1.00
318;DHT22;146;53.448;10.228;2024-02-15T01:12:50;12.30;1.00
318;DHT22;146;53.448;10.228;2024-02-15T01:15:37;12.30;1.00
318;DHT22;146;53.448;10.228;2024-02-15T01:18:25;12.30;1.00
318;DHT22;146;53.448;10.228;2024-02-15T01:21:12;12.30;1.00
318;DHT22;146;53.448;10.228;2024-02-15T01:24:01;12.30;1.00
318;DHT22;146;53.448;10.228;2024-02-15T01:26:49;12.30;1.00
318;DHT22;146;53.448;10.228;2024-02-15T01:29:36;12.30;1.00
318;DHT22;146;53.448;10.228;2024-02-15T01:32:23;12.40;1.00
318;DHT22;146;53.448;10.228;2024-02-15T01:35:11;12.40;1.00
318;DHT22;146;53.448;10.228;2024-02-15T01:37:58;12.40;1.00
318;DHT22;146;53.448;10.228;2024-02-15T01:40:48;12.30;1.00
318;DHT22;146;53.448;10.228;2024-02-15T01:43:35;12.30;1.00
318;DHT22;146;53.448;10.228;2024-02-15T01:46:22;12.30;1.00
318;DHT22;146;53.448;10.228;2024-02-15T01:49:11;12.30;1.00
318;DHT22;146;53.448;10.228;2024-02-15T01:51:58;12.30;1.00
318;DHT22;146;53.448;10.228;2024-02-15T01:54:48;12.30;1.00
318;DHT22;146;53.448;10.228;2024-02-15T01:57:37;12.30;1.00
318;DHT22;146;53.448;10.228;2024-02-15T02:00:24;12.20;1.00
318;DHT22;146;53.448;10.228;2024-02-15T02:03:13;12.20;1.00
318;DHT22;146;53.448;10.228;2024-02-15T02:06:01;12.30;1.00
318;DHT22;146;53.448;10.228;2024-02-15T02:08:49;12.30;1.00
318;DHT22;146;53.448;10.228;2024-02-15T02:11:36;12.30;1.00
318;DHT22;146;53.448;10.228;2024-02-15T02:14:38;12.30;1.00
318;DHT22;146;53.448;10.228;2024-02-15T02:17:25;12.30;1.00
318;DHT22;146;53.448;10.228;2024-02-15T02:20:12;12.30;1.00
318;DHT22;146;53.448;10.228;2024-02-15T02:23:03;12.30;1.00
318;DHT22;146;53.448;10.228;2024-02-15T02:25:55;12.30;1.00
318;DHT22;146;53.448;10.228;2024-02-15T02:28:43;12.30;1.00
318;DHT22;146;53.448;10.228;2024-02-15T02:31:32;12.30;1.00
318;DHT22;146;53.448;10.228;2024-02-15T02:34:20;12.40;1.00
318;DHT22;146;53.448;10.228;2024-02-15T02:37:07;12.40;1.00
318;DHT22;146;53.448;10.228;2024-02-15T02:40:22;12.40;1.00
318;DHT22;146;53.448;10.228;2024-02-15T02:43:11;12.40;1.00
318;DHT22;146;53.448;10.228;2024-02-15T02:45:58;12.40;1.00
318;DHT22;146;53.448;10.228;2024-02-15T02:48:45;12.50;1.00
318;DHT22;146;53.448;10.228;2024-02-15T02:51:32;12.40;1.00
318;DHT22;146;53.448;10.228;2024-02-15T02:54:19;12.40;1.00
318;DHT22;146;53.448;10.228;2024-02-15T02:57:07;12.50;1.00
318;DHT22;146;53.448;10.228;2024-02-15T02:59:55;12.40;1.00
318;DHT22;146;53.448;10.228;2024-02-15T03:02:43;12.50;1.00
318;DHT22;146;53.448;10.228;2024-02-15T03:09:12;12.50;1.00
318;DHT22;146;53.448;10.228;2024-02-15T03:12:00;12.50;1.00
318;DHT22;146;53.448;10.228;2024-02-15T03:14:47;12.50;1.00
318;DHT22;146;53.448;10.228;2024-02-15T03:17:36;12.50;1.00
318;DHT22;146;53.448;10.228;2024-02-15T03:20:24;12.50;1.00
318;DHT22;146;53.448;10.228;2024-02-15T03:30:24;12.60;1.00
318;DHT22;146;53.448;10.228;2024-02-15T03:33:13;12.60;1.00
318;DHT22;146;53.448;10.228;2024-02-15T03:36:00;12.60;1.00
318;DHT22;146;53.448;10.228;2024-02-15T03:38:47;12.60;1.00
318;DHT22;146;53.448;10.228;2024-02-15T03:41:34;12.60;1.00
318;DHT22;146;53.448;10.228;2024-02-15T03:44:22;12.60;1.00
318;DHT22;146;53.448;10.228;2024-02-15T03:47:27;12.60;1.00
318;DHT22;146;53.448;10.228;2024-02-15T03:50:16;12.50;1.00
318;DHT22;146;53.448;10.228;2024-02-15T03:53:04;12.50;1.00
318;DHT22;146;53.448;10.228;2024-02-15T03:55:52;12.50;1.00
318;DHT22;146;53.448;10.228;2024-02-15T03:58:39;12.50;1.00
318;DHT22;146;53.448;10.228;2024-02-15T04:01:26;12.50;1.00
318;DHT22;146;53.448;10.228;2024-02-15T04:04:16;12.50;1.00
318;DHT22;146;53.448;10.228;2024-02-15T04:07:04;12.50;1.00
318;DHT22;146;53.448;10.228;2024-02-15T04:09:52;12.50;1.00
318;DHT22;146;53.448;10.228;2024-02-15T04:12:40;12.50;1.00
318;DHT22;146;53.448;10.228;2024-02-15T04:15:34;12.40;1.00
318;DHT22;146;53.448;10.228;2024-02-15T04:18:23;12.60;1.00
318;DHT22;146;53.448;10.228;2024-02-15T04:21:10;12.60;1.00
318;DHT22;146;53.448;10.228;2024-02-15T04:23:59;12.60;1.00
318;DHT22;146;53.448;10.228;2024-02-15T04:26:46;12.70;1.00
318;DHT22;146;53.448;10.228;2024-02-15T04:29:34;12.60;1.00
318;DHT22;146;53.448;10.228;2024-02-15T04:32:23;12.70;1.00
318;DHT22;146;53.448;10.228;2024-02-15T04:35:10;12.70;1.00
318;DHT22;146;53.448;10.228;2024-02-15T04:37:57;12.70;1.00
318;DHT22;146;53.448;10.228;2024-02-15T04:40:46;12.70;1.00
318;DHT22;146;53.448;10.228;2024-02-15T04:43:33;12.70;1.00
318;DHT22;146;53.448;10.228;2024-02-15T04:46:22;12.70;1.00
318;DHT22;146;53.448;10.228;2024-02-15T04:49:10;12.80;1.00
318;DHT22;146;53.448;10.228;2024-02-15T04:51:57;12.80;1.00
318;DHT22;146;53.448;10.228;2024-02-15T04:54:44;12.80;1.00
318;DHT22;146;53.448;10.228;2024-02-15T04:57:33;12.80;1.00
318;DHT22;146;53.448;10.228;2024-02-15T05:00:23;12.90;1.00
318;DHT22;146;53.448;10.228;2024-02-15T05:03:11;12.80;1.00
318;DHT22;146;53.448;10.228;2024-02-15T05:05:59;12.80;1.00
318;DHT22;146;53.448;10.228;2024-02-15T05:08:46;12.90;1.00
318;DHT22;146;53.448;10.228;2024-02-15T05:11:33;12.90;1.00
318;DHT22;146;53.448;10.228;2024-02-15T05:14:23;12.90;1.00
318;DHT22;146;53.448;10.228;2024-02-15T05:17:10;12.90;1.00
318;DHT22;146;53.448;10.228;2024-02-15T05:19:58;12.80;1.00
318;DHT22;146;53.448;10.228;2024-02-15T05:22:45;12.80;1.00
318;DHT22;146;53.448;10.228;2024-02-15T05:25:32;12.80;1.00
318;DHT22;146;53.448;10.228;2024-02-15T05:28:21;12.80;1.00
318;DHT22;146;53.448;10.228;2024-02-15T05:31:14;12.80;1.00
318;DHT22;146;53.448;10.228;2024-02-15T05:34:02;12.80;1.00
318;DHT22;146;53.448;10.228;2024-02-15T05:36:49;12.80;1.00
318;DHT22;146;53.448;10.228;2024-02-15T05:39:37;12.80;1.00
318;DHT22;146;53.448;10.228;2024-02-15T05:42:25;12.70;1.00
318;DHT22;146;53.448;10.228;2024-02-15T05:45:29;12.80;1.00
318;DHT22;146;53.448;10.228;2024-02-15T05:48:21;12.80;1.00
318;DHT22;146;53.448;10.228;2024-02-15T05:51:08;12.80;1.00
318;DHT22;146;53.448;10.228;2024-02-15T05:53:55;12.70;1.00
318;DHT22;146;53.448;10.228;2024-02-15T05:56:45;12.80;1.00
318;DHT22;146;53.448;10.228;2024-02-15T05:59:37;12.80;1.00
318;DHT22;146;53.448;10.228;2024-02-15T06:02:26;12.80;1.00
318;DHT22;146;53.448;10.228;2024-02-15T06:05:14;12.80;1.00
318;DHT22;146;53.448;10.228;2024-02-15T06:08:03;12.90;1.00
318;DHT22;146;53.448;10.228;2024-02-15T06:10:50;12.90;1.00
318;DHT22;146;53.448;10.228;2024-02-15T06:13:38;12.90;1.00
318;DHT22;146;53.448;10.228;2024-02-15T06:16:25;12.90;1.00
318;DHT22;146;53.448;10.228;2024-02-15T06:19:13;12.90;1.00
318;DHT22;146;53.448;10.228;2024-02-15T06:22:01;12.90;1.00
318;DHT22;146;53.448;10.228;2024-02-15T06:24:50;12.80;1.00
318;DHT22;146;53.448;10.228;2024-02-15T06:27:40;12.70;1.00
318;DHT22;146;53.448;10.228;2024-02-15T06:30:28;12.70;1.00
318;DHT22;146;53.448;10.228;2024-02-15T06:33:32;12.60;1.00
318;DHT22;146;53.448;10.228;2024-02-15T06:36:39;12.60;1.00
318;DHT22;146;53.448;10.228;2024-02-15T06:39:48;12.70;1.00
318;DHT22;146;53.448;10.228;2024-02-15T06:42:35;12.80;1.00
318;DHT22;146;53.448;10.228;2024-02-15T06:45:22;12.80;1.00
318;DHT22;146;53.448;10.228;2024-02-15T06:48:10;12.80;1.00
318;DHT22;146;53.448;10.228;2024-02-15T06:50:58;12.90;1.00
318;DHT22;146;53.448;10.228;2024-02-15T06:53:45;12.90;1.00
318;DHT22;146;53.448;10.228;2024-02-15T06:56:37;12.90;1.00
318;DHT22;146;53.448;10.228;2024-02-15T06:59:25;12.90;1.00
318;DHT22;146;53.448;10.228;2024-02-15T07:02:12;12.90;1.00
318;DHT22;146;53.448;10.228;2024-02-15T07:05:06;12.90;1.00
318;DHT22;146;53.448;10.228;2024-02-15T07:07:53;12.90;1.00
318;DHT22;146;53.448;10.228;2024-02-15T07:10:41;12.90;1.00
318;DHT22;146;53.448;10.228;2024-02-15T07:13:29;12.90;1.00
318;DHT22;146;53.448;10.228;2024-02-15T07:16:17;12.90;1.00
318;DHT22;146;53.448;10.228;2024-02-15T07:19:04;12.90;1.00
318;DHT22;146;53.448;10.228;2024-02-15T07:21:51;12.80;1.00
318;DHT22;146;53.448;10.228;2024-02-15T07:24:38;12.90;1.00
318;DHT22;146;53.448;10.228;2024-02-15T07:27:25;12.90;1.00
318;DHT22;146;53.448;10.228;2024-02-15T07:33:50;13.00;1.00
318;DHT22;146;53.448;10.228;2024-02-15T07:36:38;13.10;1.00
318;DHT22;146;53.448;10.228;2024-02-15T07:39:27;13.10;1.00
318;DHT22;146;53.448;10.228;2024-02-15T07:42:15;13.10;1.00
318;DHT22;146;53.448;10.228;2024-02-15T07:45:02;13.10;1.00
318;DHT22;146;53.448;10.228;2024-02-15T07:47:52;13.10;1.00
318;DHT22;146;53.448;10.228;2024-02-15T07:50:41;13.20;1.00
318;DHT22;146;53.448;10.228;2024-02-15T07:53:29;13.20;1.00
318;DHT22;146;53.448;10.228;2024-02-15T07:56:17;13.20;1.00
318;DHT22;146;53.448;10.228;2024-02-15T07:59:04;13.20;1.00
318;DHT22;146;53.448;10.228;2024-02-15T08:01:53;13.10;1.00
318;DHT22;146;53.448;10.228;2024-02-15T08:04:40;13.20;1.00
318;DHT22;146;53.448;10.228;2024-02-15T08:07:31;13.10;1.00
318;DHT22;146;53.448;10.228;2024-02-15T08:10:21;13.20;1.00
318;DHT22;146;53.448;10.228;2024-02-15T08:13:08;13.10;1.00
318;DHT22;146;53.448;10.228;2024-02-15T08:15:56;13.10;1.00
318;DHT22;146;53.448;10.228;2024-02-15T08:18:43;13.20;1.00
318;DHT22;146;53.448;10.228;2024-02-15T08:21:32;13.20;1.00
318;DHT22;146;53.448;10.228;2024-02-15T08:24:22;13.20;1.00
318;DHT22;146;53.448;10.228;2024-02-15T08:27:10;13.20;1.00
318;DHT22;146;53.448;10.228;2024-02-15T08:29:57;13.30;1.00
318;DHT22;146;53.448;10.228;2024-02-15T08:32:45;13.30;1.00
318;DHT22;146;53.448;10.228;2024-02-15T08:35:33;13.30;1.00
318;DHT22;146;53.448;10.228;2024-02-15T08:38:21;13.30;1.00
318;DHT22;146;53.448;10.228;2024-02-15T08:41:12;13.40;1.00
318;DHT22;146;53.448;10.228;2024-02-15T08:43:59;13.40;1.00
318;DHT22;146;53.448;10.228;2024-02-15T08:46:47;13.40;1.00
318;DHT22;146;53.448;10.228;2024-02-15T08:49:34;13.50;1.00
318;DHT22;146;53.448;10.228;2024-02-15T08:52:22;13.60;1.00
318;DHT22;146;53.448;10.228;2024-02-15T08:55:09;13.60;1.00
318;DHT22;146;53.448;10.228;2024-02-15T08:58:01;13.70;1.00
318;DHT22;146;53.448;10.228;2024-02-15T09:00:49;13.80;1.00
318;DHT22;146;53.448;10.228;2024-02-15T09:03:36;13.80;1.00
318;DHT22;146;53.448;10.228;2024-02-15T09:06:23;13.90;1.00
318;DHT22;146;53.448;10.228;2024-02-15T09:09:11;14.00;1.00
318;DHT22;146;53.448;10.228;2024-02-15T09:12:01;13.90;1.00
318;DHT22;146;53.448;10.228;2024-02-15T09:14:52;14.00;1.00
318;DHT22;146;53.448;10.228;2024-02-15T09:17:39;14.00;1.00
318;DHT22;146;53.448;10.228;2024-02-15T09:20:27;14.10;1.00
318;DHT22;146;53.448;10.228;2024-02-15T09:23:15;14.10;1.00
318;DHT22;146;53.448;10.228;2024-02-15T09:26:02;14.10;1.00
318;DHT22;146;53.448;10.228;2024-02-15T09:28:49;14.00;1.00
318;DHT22;146;53.448;10.228;2024-02-15T09:31:38;14.00;1.00
318;DHT22;146;53.448;10.228;2024-02-15T09:34:26;14.10;1.00
318;DHT22;146;53.448;10.228;2024-02-15T09:37:13;14.20;1.00
318;DHT22;146;53.448;10.228;2024-02-15T09:40:00;14.20;1.00
318;DHT22;146;53.448;10.228;2024-02-15T09:42:52;14.10;1.00
318;DHT22;146;53.448;10.228;2024-02-15T09:45:39;14.20;1.00
318;DHT22;146;53.448;10.228;2024-02-15T09:48:28;14.20;1.00
318;DHT22;146;53.448;10.228;2024-02-15T09:51:18;14.20;1.00
318;DHT22;146;53.448;10.228;2024-02-15T09:54:07;14.10;1.00
318;DHT22;146;53.448;10.228;2024-02-15T09:56:56;14.10;1.00
318;DHT22;146;53.448;10.228;2024-02-15T10:00:05;14.10;1.00
318;DHT22;146;53.448;10.228;2024-02-15T10:02:53;14.10;1.00
318;DHT22;146;53.448;10.228;2024-02-15T10:05:43;14.20;1.00
318;DHT22;146;53.448;10.228;2024-02-15T10:08:30;14.10;1.00
318;DHT22;146;53.448;10.228;2024-02-15T10:11:17;14.10;1.00
318;DHT22;146;53.448;10.228;2024-02-15T10:14:10;14.10;1.00
318;DHT22;146;53.448;10.228;2024-02-15T10:17:07;14.20;1.00
318;DHT22;146;53.448;10.228;2024-02-15T10:20:03;14.10;1.00
318;DHT22;146;53.448;10.228;2024-02-15T10:22:53;14.20;1.00
318;DHT22;146;53.448;10.228;2024-02-15T10:25:41;14.20;1.00
318;DHT22;146;53.448;10.228;2024-02-15T10:28:28;14.20;1.00
318;DHT22;146;53.448;10.228;2024-02-15T10:31:15;14.20;1.00
318;DHT22;146;53.448;10.228;2024-02-15T10:34:05;14.20;1.00
318;DHT22;146;53.448;10.228;2024-02-15T10:36:53;14.30;1.00
318;DHT22;146;53.448;10.228;2024-02-15T10:39:43;14.20;1.00
318;DHT22;146;53.448;10.228;2024-02-15T10:42:31;14.20;1.00
318;DHT22;146;53.448;10.228;2024-02-15T10:45:20;14.20;1.00
318;DHT22;146;53.448;10.228;2024-02-15T10:48:08;14.20;1.00
318;DHT22;146;53.448;10.228;2024-02-15T10:50:56;14.30;1.00
318;DHT22;146;53.448;10.228;2024-02-15T10:53:48;14.20;1.00
318;DHT22;146;53.448;10.228;2024-02-15T10:56:44;14.30;1.00
318;DHT22;146;53.448;10.228;2024-02-15T10:59:37;14.30;1.00
318;DHT22;146;53.448;10.228;2024-02-15T11:02:27;14.40;1.00
318;DHT22;146;53.448;10.228;2024-02-15T11:05:16;14.40;1.00
318;DHT22;146;53.448;10.228;2024-02-15T11:08:10;14.50;1.00
318;DHT22;146;53.448;10.228;2024-02-15T11:10:58;14.50;1.00
318;DHT22;146;53.448;10.228;2024-02-15T11:13:49;14.50;1.00
318;DHT22;146;53.448;10.228;2024-02-15T11:16:39;14.60;1.00
318;DHT22;146;53.448;10.228;2024-02-15T11:19:44;14.50;1.00
318;DHT22;146;53.448;10.228;2024-02-15T11:22:34;14.40;1.00
318;DHT22;146;53.448;10.228;2024-02-15T11:25:31;14.40;1.00
318;DHT22;146;53.448;10.228;2024-02-15T11:28:51;14.40;1.00
318;DHT22;146;53.448;10.228;2024-02-15T11:31:55;14.40;1.00
318;DHT22;146;53.448;10.228;2024-02-15T11:34:43;14.40;1.00
318;DHT22;146;53.448;10.228;2024-02-15T11:37:50;14.40;1.00
318;DHT22;146;53.448;10.228;2024-02-15T11:41:01;14.40;1.00
318;DHT22;146;53.448;10.228;2024-02-15T11:43:50;14.30;1.00
318;DHT22;146;53.448;10.228;2024-02-15T11:46:43;14.30;1.00
318;DHT22;146;53.448;10.228;2024-02-15T11:49:30;14.30;1.00
318;DHT22;146;53.448;10.228;2024-02-15T11:52:17;14.30;1.00
318;DHT22;146;53.448;10.228;2024-02-15T11:55:07;14.30;1.00
318;DHT22;146;53.448;10.228;2024-02-15T11:57:56;14.30;1.00
318;DHT22;146;53.448;10.228;2024-02-15T12:00:51;14.20;1.00
318;DHT22;146;53.448;10.228;2024-02-15T12:03:57;14.20;1.00
318;DHT22;146;53.448;10.228;2024-02-15T12:07:07;14.10;1.00
318;DHT22;146;53.448;10.228;2024-02-15T12:10:16;14.10;1.00
318;DHT22;146;53.448;10.228;2024-02-15T12:13:21;14.10;1.00
318;DHT22;146;53.448;10.228;2024-02-15T12:16:25;14.10;1.00
318;DHT22;146;53.448;10.228;2024-02-15T12:19:31;14.00;1.00
318;DHT22;146;53.448;10.228;2024-02-15T12:22:21;14.00;1.00
318;DHT22;146;53.448;10.228;2024-02-15T12:25:14;14.00;1.00
318;DHT22;146;53.448;10.228;2024-02-15T12:28:02;14.10;1.00
318;DHT22;146;53.448;10.228;2024-02-15T12:30:54;14.10;1.00
318;DHT22;146;53.448;10.228;2024-02-15T12:33:42;14.10;1.00
318;DHT22;146;53.448;10.228;2024-02-15T12:36:31;14.10;1.00
318;DHT22;146;53.448;10.228;2024-02-15T12:39:24;14.10;1.00
318;DHT22;146;53.448;10.228;2024-02-15T12:42:13;14.10;1.00
318;DHT22;146;53.448;10.228;2024-02-15T12:45:00;14.10;1.00
318;DHT22;146;53.448;10.228;2024-02-15T12:47:51;14.10;1.00
318;DHT22;146;53.448;10.228;2024-02-15T12:50:38;14.00;1.00
318;DHT22;146;53.448;10.228;2024-02-15T12:53:27;14.00;1.00
318;DHT22;146;53.448;10.228;2024-02-15T12:56:20;14.00;1.00
318;DHT22;146;53.448;10.228;2024-02-15T12:59:07;14.00;1.00
318;DHT22;146;53.448;10.228;2024-02-15T13:01:55;13.90;1.00
318;DHT22;146;53.448;10.228;2024-02-15T13:04:43;13.90;1.00
318;DHT22;146;53.448;10.228;2024-02-15T13:07:30;13.90;1.00
318;DHT22;146;53.448;10.228;2024-02-15T13:10:19;13.80;1.00
318;DHT22;146;53.448;10.228;2024-02-15T13:13:06;13.80;1.00
318;DHT22;146;53.448;10.228;2024-02-15T13:15:55;13.90;1.00
318;DHT22;146;53.448;10.228;2024-02-15T13:18:42;13.90;1.00
318;DHT22;146;53.448;10.228;2024-02-15T13:21:31;13.90;1.00
318;DHT22;146;53.448;10.228;2024-02-15T13:24:19;13.90;1.00
318;DHT22;146;53.448;10.228;2024-02-15T13:27:13;13.90;1.00
318;DHT22;146;53.448;10.228;2024-02-15T13:30:00;13.80;1.00
318;DHT22;146;53.448;10.228;2024-02-15T13:32:48;13.80;1.00
318;DHT22;146;53.448;10.228;2024-02-15T13:35:36;13.80;1.00
318;DHT22;146;53.448;10.228;2024-02-15T13:38:24;13.90;1.00
318;DHT22;146;53.448;10.228;2024-02-15T13:41:12;13.90;1.00
318;DHT22;146;53.448;10.228;2024-02-15T13:44:00;13.80;1.00
318;DHT22;146;53.448;10.228;2024-02-15T13:46:47;13.80;1.00
318;DHT22;146;53.448;10.228;2024-02-15T13:49:42;13.80;1.00
318;DHT22;146;53.448;10.228;2024-02-15T13:52:29;13.80;1.00
318;DHT22;146;53.448;10.228;2024-02-15T13:55:18;13.80;1.00
318;DHT22;146;53.448;10.228;2024-02-15T13:58:06;13.70;1.00
318;DHT22;146;53.448;10.228;2024-02-15T14:00:59;13.80;1.00
318;DHT22;146;53.448;10.228;2024-02-15T14:03:49;13.80;1.00
318;DHT22;146;53.448;10.228;2024-02-15T14:06:36;13.80;1.00
318;DHT22;146;53.448;10.228;2024-02-15T14:09:26;13.80;1.00
318;DHT22;146;53.448;10.228;2024-02-15T14:12:13;13.90;1.00
318;DHT22;146;53.448;10.228;2024-02-15T14:15:02;13.90;1.00
318;DHT22;146;53.448;10.228;2024-02-15T14:17:53;13.90;1.00
318;DHT22;146;53.448;10.228;2024-02-15T14:20:41;13.90;1.00
318;DHT22;146;53.448;10.228;2024-02-15T14:23:28;13.90;1.00
318;DHT22;146;53.448;10.228;2024-02-15T14:26:16;13.90;1.00
318;DHT22;146;53.448;10.228;2024-02-15T14:29:03;13.90;1.00
318;DHT22;146;53.448;10.228;2024-02-15T14:31:53;13.90;1.00
318;DHT22;146;53.448;10.228;2024-02-15T14:34:59;13.90;1.00
318;DHT22;146;53.448;10.228;2024-02-15T14:37:46;13.90;1.00
318;DHT22;146;53.448;10.228;2024-02-15T14:40:34;14.00;1.00
318;DHT22;146;53.448;10.228;2024-02-15T14:43:23;13.90;1.00
318;DHT22;146;53.448;10.228;2024-02-15T14:46:11;13.90;1.00
318;DHT22;146;53.448;10.228;2024-02-15T14:48:58;13.90;1.00
318;DHT22;146;53.448;10.228;2024-02-15T14:51:47;13.90;1.00
318;DHT22;146;53.448;10.228;2024-02-15T14:54:35;13.90;1.00
318;DHT22;146;53.448;10.228;2024-02-15T14:57:22;13.80;1.00
318;DHT22;146;53.448;10.228;2024-02-15T15:00:11;13.90;1.00
318;DHT22;146;53.448;10.228;2024-02-15T15:02:59;13.90;1.00
318;DHT22;146;53.448;10.228;2024-02-15T15:05:48;13.90;1.00
318;DHT22;146;53.448;10.228;2024-02-15T15:08:54;13.80;1.00
318;DHT22;146;53.448;10.228;2024-02-15T15:11:58;13.90;1.00
318;DHT22;146;53.448;10.228;2024-02-15T15:15:03;13.80;1.00
318;DHT22;146;53.448;10.228;2024-02-15T15:17:51;13.80;1.00
318;DHT22;146;53.448;10.228;2024-02-15T15:20:38;13.90;1.00
318;DHT22;146;53.448;10.228;2024-02-15T15:23:26;13.80;1.00
318;DHT22;146;53.448;10.228;2024-02-15T15:26:20;13.80;1.00
318;DHT22;146;53.448;10.228;2024-02-15T15:29:07;13.90;1.00
318;DHT22;146;53.448;10.228;2024-02-15T15:31:56;13.90;1.00
318;DHT22;146;53.448;10.228;2024-02-15T15:34:44;13.90;1.00
318;DHT22;146;53.448;10.228;2024-02-15T15:37:31;13.90;1.00
318;DHT22;146;53.448;10.228;2024-02-15T15:40:19;13.90;1.00
318;DHT22;146;53.448;10.228;2024-02-15T15:43:08;13.90;1.00
318;DHT22;146;53.448;10.228;2024-02-15T15:45:56;13.90;1.00
318;DHT22;146;53.448;10.228;2024-02-15T15:48:44;13.80;1.00
318;DHT22;146;53.448;10.228;2024-02-15T15:51:31;13.80;1.00
318;DHT22;146;53.448;10.228;2024-02-15T15:54:19;13.80;1.00
318;DHT22;146;53.448;10.228;2024-02-15T15:57:06;13.80;1.00
318;DHT22;146;53.448;10.228;2024-02-15T15:59:57;13.80;1.00
318;DHT22;146;53.448;10.228;2024-02-15T16:02:45;13.80;1.00
318;DHT22;146;53.448;10.228;2024-02-15T16:05:32;13.70;1.00
318;DHT22;146;53.448;10.228;2024-02-15T16:08:19;13.80;1.00
318;DHT22;146;53.448;10.228;2024-02-15T16:11:07;13.80;1.00
318;DHT22;146;53.448;10.228;2024-02-15T16:13:54;13.70;1.00
318;DHT22;146;53.448;10.228;2024-02-15T16:16:43;13.70;1.00
318;DHT22;146;53.448;10.228;2024-02-15T16:19:30;13.70;1.00
318;DHT22;146;53.448;10.228;2024-02-15T16:22:17;13.70;1.00
318;DHT22;146;53.448;10.228;2024-02-15T16:25:05;13.70;1.00
318;DHT22;146;53.448;10.228;2024-02-15T16:27:53;13.70;1.00
318;DHT22;146;53.448;10.228;2024-02-15T16:30:41;13.70;1.00
318;DHT22;146;53.448;10.228;2024-02-15T16:33:31;13.70;1.00
318;DHT22;146;53.448;10.228;2024-02-15T16:36:19;13.70;1.00
318;DHT22;146;53.448;10.228;2024-02-15T16:39:08;13.70;1.00
318;DHT22;146;53.448;10.228;2024-02-15T16:41:57;13.70;1.00
318;DHT22;146;53.448;10.228;2024-02-15T16:44:46;13.70;1.00
318;DHT22;146;53.448;10.228;2024-02-15T16:47:33;13.60;1.00
318;DHT22;146;53.448;10.228;2024-02-15T16:50:23;13.60;1.00
318;DHT22;146;53.448;10.228;2024-02-15T16:53:10;13.60;1.00
318;DHT22;146;53.448;10.228;2024-02-15T16:55:57;13.70;1.00
318;DHT22;146;53.448;10.228;2024-02-15T16:58:44;13.70;1.00
318;DHT22;146;53.448;10.228;2024-02-15T17:01:32;13.60;1.00
318;DHT22;146;53.448;10.228;2024-02-15T17:04:19;13.60;1.00
318;DHT22;146;53.448;10.228;2024-02-15T17:07:07;13.70;1.00
318;DHT22;146;53.448;10.228;2024-02-15T17:09:55;13.60;1.00
318;DHT22;146;53.448;10.228;2024-02-15T17:12:42;13.60;1.00
318;DHT22;146;53.448;10.228;2024-02-15T17:15:29;13.60;1.00
318;DHT22;146;53.448;10.228;2024-02-15T17:18:17;13.50;1.00
318;DHT22;146;53.448;10.228;2024-02-15T17:21:04;13.60;1.00
318;DHT22;146;53.448;10.228;2024-02-15T17:23:53;13.50;1.00
318;DHT22;146;53.448;10.228;2024-02-15T17:26:43;13.50;1.00
318;DHT22;146;53.448;10.228;2024-02-15T17:29:30;13.50;1.00
318;DHT22;146;53.448;10.228;2024-02-15T17:32:17;13.50;1.00
318;DHT22;146;53.448;10.228;2024-02-15T17:35:05;13.50;1.00
318;DHT22;146;53.448;10.228;2024-02-15T17:37:53;13.50;1.00
318;DHT22;146;53.448;10.228;2024-02-15T17:40:42;13.50;1.00
318;DHT22;146;53.448;10.228;2024-02-15T17:43:29;13.50;1.00
318;DHT22;146;53.448;10.228;2024-02-15T17:46:17;13.40;1.00
318;DHT22;146;53.448;10.228;2024-02-15T17:49:04;13.40;1.00
318;DHT22;146;53.448;10.228;2024-02-15T17:51:51;13.50;1.00
318;DHT22;146;53.448;10.228;2024-02-15T17:54:38;13.50;1.00
318;DHT22;146;53.448;10.228;2024-02-15T17:57:26;13.50;1.00
318;DHT22;146;53.448;10.228;2024-02-15T18:00:14;13.60;1.00
318;DHT22;146;53.448;10.228;2024-02-15T18:03:05;13.40;1.00
318;DHT22;146;53.448;10.228;2024-02-15T18:05:53;13.30;1.00
318;DHT22;146;53.448;10.228;2024-02-15T18:08:43;13.20;1.00
318;DHT22;146;53.448;10.228;2024-02-15T18:11:30;13.30;1.00
318;DHT22;146;53.448;10.228;2024-02-15T18:14:19;13.20;1.00
318;DHT22;146;53.448;10.228;2024-02-15T18:17:07;13.20;1.00
318;DHT22;146;53.448;10.228;2024-02-15T18:19:55;13.20;1.00
318;DHT22;146;53.448;10.228;2024-02-15T18:22:42;13.20;1.00
318;DHT22;146;53.448;10.228;2024-02-15T18:25:30;13.20;1.00
318;DHT22;146;53.448;10.228;2024-02-15T18:28:17;13.10;1.00
318;DHT22;146;53.448;10.228;2024-02-15T18:31:05;13.10;1.00
318;DHT22;146;53.448;10.228;2024-02-15T18:33:54;13.00;1.00
318;DHT22;146;53.448;10.228;2024-02-15T18:36:41;13.10;1.00
318;DHT22;146;53.448;10.228;2024-02-15T18:39:29;13.10;1.00
318;DHT22;146;53.448;10.228;2024-02-15T18:42:17;13.10;1.00
318;DHT22;146;53.448;10.228;2024-02-15T18:45:10;13.10;1.00
318;DHT22;146;53.448;10.228;2024-02-15T18:47:59;13.10;1.00
318;DHT22;146;53.448;10.228;2024-02-15T18:50:48;13.20;1.00
318;DHT22;146;53.448;10.228;2024-02-15T18:53:35;13.20;1.00
318;DHT22;146;53.448;10.228;2024-02-15T18:56:22;13.20;1.00
318;DHT22;146;53.448;10.228;2024-02-15T18:59:10;13.20;1.00
318;DHT22;146;53.448;10.228;2024-02-15T19:01:57;13.20;1.00
318;DHT22;146;53.448;10.228;2024-02-15T19:04:47;13.20;1.00
318;DHT22;146;53.448;10.228;2024-02-15T19:07:34;13.20;1.00
318;DHT22;146;53.448;10.228;2024-02-15T19:10:21;13.20;1.00
318;DHT22;146;53.448;10.228;2024-02-15T19:13:08;13.10;1.00
318;DHT22;146;53.448;10.228;2024-02-15T19:15:56;13.00;1.00